Daytona Beach, FL

7:15 PM EDT on July 02, 2015 (GMT -0400)
Embry Riddle Aeronautical University WeatherSTEM | | Change Station
CLOSE
Current Station
Personal Weather Station
Location: Daytona Beach, FL
Elevation: 42 ft
Nearby Weather Stations

Elev 42 ft 29.19 °N, 81.05 °W | Updated 8 minutes ago

Mostly Cloudy
Mostly Cloudy
74.9 °F
Feels Like 74 °F
N
2.0
Wind Variable Wind from East
Gusts 7.0 mph

Today
High -- | Low -- °F
--% Chance of Precip.
Yesterday
High -- | Low -- °F
Precip. -- in
6:28 AM 8:27 PM
Full, 99% visible
Pressure 30.09 in
Visibility 8.0 miles
Clouds Few 3800 ft
Few 5500 ft
Scattered Clouds 13000 ft
Mostly Cloudy 20000 ft
Heat Index 74 °F
Dew Point 72 °F
Humidity 90%
Rainfall 0.56 in
Snow Depth Not available.
UV 0.0 out of 12
Pollen 2.70 out of 12
Air Quality Not available.
Flu Activity Not available.
METAR KDAB 022253Z 10003KT 8SM FEW038 FEW055 SCT130 BKN200 23/22 A3009 RMK AO2 SLP187 T02330217

More Conditions Fewer Conditions

Pressure 30.09 in
Visibility 8.0 miles
Clouds Few 3800 ft
Few 5500 ft
Scattered Clouds 13000 ft
Mostly Cloudy 20000 ft
Heat Index 74 °F
Dew Point 72 °F
Humidity 90%
Rainfall 0.56 in
Snow Depth Not available.
UV 0.0 out of 12
Pollen 2.70 out of 12
Air Quality Not available.
Flu Activity Not available.
METAR KDAB 022253Z 10003KT 8SM FEW038 FEW055 SCT130 BKN200 23/22 A3009 RMK AO2 SLP187 T02330217

More Conditions Fewer Conditions

Nowcast | as of 7:07 PM EDT on July 2, 2015

Through mid evening...while shower and storm activity is on a downward swing...boundary collisions will keep scattered storms developing. Most favorable locations will be from Melbourne to Kissimmee prairie preserve southward. Heavy rainfall...frequent lightning...small hail...and gusty winds up to around 45 mph will be the main threats in stronger storms. Additional details...including graphics are available online at: http://www.Srh.NOAA.Gov/mlb/blog.Php

×

10-Day Weather Forecast

×

Almanac

Astronomy

Jul. 02, 2015 Rise Set
Actual Time
Civil Twilight
Nautical Twilight
Astronomical Twilight
Moon
Length of Visible Light
Length of Day
Tomorrow will be .
, % of the Moon is Illuminated

Today's Extremes

State Highs State Lows

Community

WunderPhotos

Upload Photos

1,834,565 photos uploaded!

WunderBlogs® & News

Nearby

Air Quality

  Air Quality AQ Index Pollutant
Not available.

Snow Depth

Station Depth Elevation

Earthquake Activity

City Distance Mag. Time & Date
Minimum magnitude displayed is 2.5.

Coastal Water Temperatures

Place Temperature

Stations

Nearby Weather Stations

Station Location Temp. Windchill Dew Point Humidity Wind Precip. Elev Updated Type